createdAt,value
2017-11-08T00:00:14.945Z,13.30
2017-11-08T00:02:42.367Z,13.30
2017-11-08T00:05:09.826Z,14.13
2017-11-08T00:07:37.266Z,14.87
2017-11-08T00:10:04.702Z,16.12
2017-11-08T00:12:32.908Z,13.35
2017-11-08T00:15:00.341Z,11.60
2017-11-08T00:17:28.571Z,11.27
2017-11-08T00:19:57.874Z,14.00
2017-11-08T00:22:25.310Z,16.75
2017-11-08T00:24:52.784Z,11.20
2017-11-08T00:27:20.223Z,14.63
2017-11-08T00:29:47.650Z,17.58
2017-11-08T00:32:15.149Z,15.40
2017-11-08T00:34:42.608Z,14.93
2017-11-08T00:37:10.063Z,16.42
2017-11-08T00:39:37.496Z,15.05
2017-11-08T00:42:04.994Z,11.12
2017-11-08T00:44:32.540Z,12.35
2017-11-08T00:46:59.999Z,12.57
2017-11-08T00:49:27.551Z,13.80
2017-11-08T00:51:54.974Z,11.75
2017-11-08T00:54:22.418Z,18.17
2017-11-08T00:56:49.926Z,13.82
2017-11-08T00:59:17.358Z,14.98
2017-11-08T01:01:44.799Z,12.30
2017-11-08T01:04:12.278Z,19.02
2017-11-08T01:06:39.706Z,13.02
2017-11-08T01:09:07.194Z,18.50
2017-11-08T01:11:34.635Z,11.10
2017-11-08T01:14:02.134Z,14.18
2017-11-08T01:16:29.550Z,13.75
2017-11-08T01:18:56.994Z,16.03
2017-11-08T01:21:24.449Z,11.48
2017-11-08T01:23:51.875Z,15.25
2017-11-08T01:26:20.106Z,13.32
2017-11-08T01:28:47.570Z,16.58
2017-11-08T01:31:15.028Z,13.23
2017-11-08T01:33:44.415Z,11.00
2017-11-08T01:36:11.855Z,14.37
2017-11-08T01:38:43.084Z,13.35
2017-11-08T01:41:16.329Z,15.88
2017-11-08T01:43:44.526Z,15.90
2017-11-08T01:46:16.696Z,14.87
2017-11-08T01:48:44.939Z,12.98
2017-11-08T01:51:14.236Z,13.67
2017-11-08T01:53:41.678Z,11.68
2017-11-08T01:56:09.106Z,13.15
2017-11-08T01:58:36.539Z,15.57
2017-11-08T02:01:04.771Z,14.45
2017-11-08T02:03:32.222Z,16.50
2017-11-08T02:05:59.679Z,14.15
2017-11-08T02:08:27.145Z,13.55
2017-11-08T02:10:54.578Z,14.23
2017-11-08T02:13:22.072Z,10.60
2017-11-08T02:15:50.427Z,13.95
2017-11-08T02:18:21.650Z,11.97
2017-11-08T02:20:49.078Z,18.15
2017-11-08T02:23:16.511Z,15.43
2017-11-08T02:25:44.047Z,16.10
2017-11-08T02:28:11.483Z,14.20
2017-11-08T02:30:38.964Z,14.80
2017-11-08T02:33:06.399Z,13.20
2017-11-08T02:35:33.835Z,17.87
2017-11-08T02:38:01.344Z,14.57
2017-11-08T02:40:28.786Z,14.02
2017-11-08T02:42:56.207Z,12.48
2017-11-08T02:45:29.275Z,18.05
2017-11-08T02:47:56.715Z,16.87
2017-11-08T02:50:24.971Z,15.73
2017-11-08T02:52:52.534Z,15.48
2017-11-08T02:55:20.090Z,17.30
2017-11-08T02:57:47.535Z,15.02
2017-11-08T03:00:14.995Z,16.85
2017-11-08T03:02:48.123Z,17.27
2017-11-08T03:05:17.372Z,16.60
2017-11-08T03:07:44.824Z,17.10
2017-11-08T03:10:12.287Z,18.12
2017-11-08T03:12:39.723Z,16.20
2017-11-08T03:15:07.158Z,14.73
2017-11-08T03:17:34.603Z,17.45
2017-11-08T03:20:02.808Z,16.15
2017-11-08T03:22:30.263Z,17.62
2017-11-08T03:24:57.727Z,18.93
2017-11-08T03:27:25.163Z,18.95
2017-11-08T03:29:52.606Z,16.50
2017-11-08T03:32:20.045Z,18.65
2017-11-08T03:34:48.279Z,16.60
2017-11-08T03:37:15.706Z,18.00
2017-11-08T03:39:43.142Z,20.40
2017-11-08T03:42:10.642Z,19.33
2017-11-08T03:44:38.099Z,20.23
2017-11-08T03:47:05.526Z,17.48
2017-11-08T03:49:32.983Z,18.30
2017-11-08T03:52:00.463Z,18.87
2017-11-08T03:54:27.920Z,18.87
2017-11-08T03:56:55.347Z,21.35
2017-11-08T03:59:22.796Z,20.70
2017-11-08T04:01:50.304Z,20.37
2017-11-08T04:04:17.731Z,21.75
2017-11-08T04:06:45.204Z,18.83
2017-11-08T04:09:12.647Z,22.13
2017-11-08T04:11:40.104Z,22.00
2017-11-08T04:14:07.542Z,21.80
2017-11-08T04:16:35.030Z,21.93
2017-11-08T04:19:02.464Z,22.63
2017-11-08T04:21:29.903Z,23.27
2017-11-08T04:23:57.402Z,24.95
2017-11-08T04:26:24.872Z,26.25
2017-11-08T04:28:52.291Z,24.85
2017-11-08T04:31:19.775Z,25.50
2017-11-08T04:33:47.235Z,27.75
2017-11-08T04:36:14.691Z,27.55
2017-11-08T04:38:42.136Z,27.98
2017-11-08T04:41:09.582Z,29.37
2017-11-08T04:43:37.055Z,25.92
2017-11-08T04:46:04.498Z,27.50
2017-11-08T04:48:31.924Z,28.00
2017-11-08T04:50:59.346Z,30.77
2017-11-08T04:53:26.790Z,29.73
2017-11-08T04:55:54.338Z,31.23
2017-11-08T04:58:21.786Z,28.50
2017-11-08T05:00:49.242Z,30.80
2017-11-08T05:03:16.697Z,31.05
2017-11-08T05:05:44.163Z,37.00
2017-11-08T05:08:11.595Z,33.47
2017-11-08T05:10:39.032Z,36.47
2017-11-08T05:13:06.543Z,34.53
2017-11-08T05:15:33.983Z,38.17
2017-11-08T05:18:01.462Z,43.45
2017-11-08T05:20:29.006Z,41.70
2017-11-08T05:22:56.456Z,43.80
2017-11-08T05:25:23.915Z,42.47
2017-11-08T05:27:51.385Z,43.58
2017-11-08T05:30:18.829Z,39.45
2017-11-08T05:32:46.291Z,44.60
2017-11-08T05:35:13.847Z,42.72
2017-11-08T05:37:41.291Z,41.90
2017-11-08T05:40:08.763Z,46.03
2017-11-08T05:42:36.205Z,45.83
2017-11-08T05:45:03.676Z,44.13
2017-11-08T05:47:31.241Z,46.60
2017-11-08T05:49:58.687Z,45.80
2017-11-08T05:52:26.134Z,43.22
2017-11-08T05:54:53.641Z,50.10
2017-11-08T05:57:21.148Z,46.40
2017-11-08T05:59:48.574Z,45.13
2017-11-08T06:02:16.012Z,52.47
2017-11-08T06:04:44.256Z,50.25
2017-11-08T06:07:11.703Z,51.10
2017-11-08T06:09:39.159Z,50.05
2017-11-08T06:12:06.750Z,52.20
2017-11-08T06:14:34.289Z,49.43
2017-11-08T06:17:01.783Z,50.77
2017-11-08T06:19:29.339Z,49.95
2017-11-08T06:21:56.987Z,52.00
2017-11-08T06:24:24.463Z,48.97
2017-11-08T06:26:51.904Z,50.38
2017-11-08T06:29:19.349Z,42.72
2017-11-08T06:31:46.807Z,54.20
2017-11-08T06:34:14.267Z,46.97
2017-11-08T06:36:41.695Z,49.85
2017-11-08T06:39:09.907Z,42.08
2017-11-08T06:41:37.354Z,45.25
2017-11-08T06:44:05.325Z,48.42
2017-11-08T06:46:32.798Z,43.83
2017-11-08T06:49:00.284Z,41.33
2017-11-08T06:51:27.715Z,44.13
2017-11-08T06:53:55.169Z,43.83
2017-11-08T06:56:22.636Z,39.85
2017-11-08T06:58:50.082Z,41.10
2017-11-08T07:01:17.526Z,45.28
2017-11-08T07:03:44.995Z,39.35
2017-11-08T07:06:12.446Z,39.28
2017-11-08T07:08:39.909Z,44.20
2017-11-08T07:11:07.366Z,41.30
2017-11-08T07:13:34.834Z,37.60
2017-11-08T07:16:02.299Z,43.90
2017-11-08T07:18:29.838Z,41.35
2017-11-08T07:20:57.294Z,42.85
2017-11-08T07:23:24.829Z,41.83
2017-11-08T07:25:52.310Z,43.33
2017-11-08T07:28:19.767Z,44.60
2017-11-08T07:30:47.884Z,45.00
2017-11-08T07:33:16.444Z,42.45
2017-11-08T07:35:44.789Z,44.90
2017-11-08T07:38:13.056Z,42.38
2017-11-08T07:40:40.503Z,43.20
2017-11-08T07:43:07.952Z,46.75
2017-11-08T07:45:35.663Z,46.15
2017-11-08T07:48:04.118Z,40.85
2017-11-08T07:50:31.705Z,37.78
2017-11-08T07:52:59.162Z,46.15
2017-11-08T07:55:34.568Z,43.92
2017-11-08T07:58:05.286Z,41.08
2017-11-08T08:00:32.904Z,44.25
2017-11-08T08:03:00.451Z,40.33
2017-11-08T08:05:27.886Z,42.92
2017-11-08T08:07:58.336Z,41.65
2017-11-08T08:10:25.863Z,43.10
2017-11-08T08:12:53.355Z,43.80
2017-11-08T08:15:20.814Z,48.50
2017-11-08T08:17:48.318Z,44.80
2017-11-08T08:20:16.155Z,46.58
2017-11-08T08:22:44.065Z,43.05
2017-11-08T08:25:11.489Z,43.85
2017-11-08T08:27:39.704Z,45.72
2017-11-08T08:30:07.186Z,44.83
2017-11-08T08:32:34.655Z,43.70
2017-11-08T08:35:02.856Z,39.95
2017-11-08T08:37:31.143Z,46.70
2017-11-08T08:39:58.638Z,45.63
2017-11-08T08:42:26.084Z,42.60
2017-11-08T08:44:53.511Z,46.13
2017-11-08T08:47:20.943Z,45.22
2017-11-08T08:49:48.472Z,45.08
2017-11-08T08:52:15.921Z,48.75
2017-11-08T08:54:43.366Z,42.85
2017-11-08T08:57:10.831Z,46.77
2017-11-08T08:59:38.279Z,43.95
2017-11-08T09:02:11.497Z,46.35
2017-11-08T09:04:39.040Z,44.58
2017-11-08T09:07:06.494Z,44.85
2017-11-08T09:09:33.974Z,44.80
2017-11-08T09:12:01.618Z,46.27
2017-11-08T09:14:30.957Z,48.00
2017-11-08T09:16:59.211Z,47.42
2017-11-08T09:19:26.698Z,43.30
2017-11-08T09:21:55.790Z,47.95
2017-11-08T09:24:23.223Z,51.92
2017-11-08T09:26:50.649Z,45.80
2017-11-08T09:29:18.086Z,49.03
2017-11-08T09:31:46.673Z,49.78
2017-11-08T09:34:16.384Z,48.70
2017-11-08T09:36:43.861Z,50.97
2017-11-08T09:39:13.143Z,48.30
2017-11-08T09:41:40.575Z,50.80
2017-11-08T09:44:08.266Z,52.75
2017-11-08T09:46:35.708Z,49.28
2017-11-08T09:49:03.182Z,53.25
2017-11-08T09:51:31.975Z,46.37
2017-11-08T09:54:05.470Z,49.30
2017-11-08T09:56:32.899Z,48.55
2017-11-08T09:59:04.241Z,52.28
2017-11-08T10:01:41.542Z,51.10
2017-11-08T10:04:08.997Z,49.17
2017-11-08T10:06:39.029Z,46.25
2017-11-08T10:09:06.515Z,48.90
2017-11-08T10:11:34.006Z,48.67
2017-11-08T10:14:01.518Z,46.40
2017-11-08T10:16:30.914Z,47.85
2017-11-08T10:18:58.437Z,49.55
2017-11-08T10:21:25.888Z,50.65
2017-11-08T10:23:53.380Z,46.95
2017-11-08T10:26:20.831Z,46.97
2017-11-08T10:28:48.271Z,53.03
2017-11-08T10:31:15.729Z,50.80
2017-11-08T10:33:43.169Z,50.03
2017-11-08T10:36:10.615Z,48.90
2017-11-08T10:38:38.126Z,46.72
2017-11-08T10:41:05.575Z,48.60
2017-11-08T10:43:32.975Z,48.53
2017-11-08T10:46:00.409Z,50.20
2017-11-08T10:48:27.836Z,50.05
2017-11-08T10:50:56.043Z,51.85
2017-11-08T10:53:23.534Z,47.08
2017-11-08T10:55:51.767Z,51.00
2017-11-08T10:58:20.105Z,49.13
2017-11-08T11:00:49.868Z,50.33
2017-11-08T11:03:17.356Z,48.55
2017-11-08T11:05:44.771Z,51.77
2017-11-08T11:08:12.257Z,50.25
2017-11-08T11:10:40.682Z,50.00
2017-11-08T11:13:08.929Z,50.17
2017-11-08T11:15:36.471Z,49.22
2017-11-08T11:18:03.944Z,50.08
2017-11-08T11:20:31.487Z,48.53
2017-11-08T11:22:58.940Z,50.70
2017-11-08T11:25:26.429Z,48.05
2017-11-08T11:27:54.652Z,49.42
2017-11-08T11:30:25.915Z,48.33
2017-11-08T11:32:53.389Z,48.87
2017-11-08T11:35:20.920Z,45.57
2017-11-08T11:37:48.360Z,48.13
2017-11-08T11:40:15.799Z,46.90
2017-11-08T11:42:44.111Z,47.55
2017-11-08T11:45:11.583Z,46.85
2017-11-08T11:47:39.028Z,46.67
2017-11-08T11:50:06.480Z,48.00
2017-11-08T11:52:35.112Z,47.78
2017-11-08T11:55:02.639Z,49.42
2017-11-08T11:57:30.118Z,51.20
2017-11-08T11:59:57.560Z,49.53
2017-11-08T12:02:24.995Z,47.15
2017-11-08T12:04:52.440Z,46.17
2017-11-08T12:07:19.880Z,43.13
2017-11-08T12:09:47.409Z,47.35
2017-11-08T12:12:14.856Z,43.08
2017-11-08T12:14:42.296Z,46.67
2017-11-08T12:17:09.739Z,44.83
2017-11-08T12:19:37.990Z,41.17
2017-11-08T12:22:05.444Z,45.87
2017-11-08T12:24:32.948Z,44.30
2017-11-08T12:27:06.199Z,40.20
2017-11-08T12:29:36.074Z,45.58
2017-11-08T12:32:03.608Z,42.60
2017-11-08T12:34:31.056Z,43.05
2017-11-08T12:36:58.518Z,43.03
2017-11-08T12:39:25.958Z,43.83
2017-11-08T12:41:53.432Z,40.72
2017-11-08T12:44:25.684Z,44.60
2017-11-08T12:46:53.149Z,39.40
2017-11-08T12:49:20.637Z,37.28
2017-11-08T12:51:49.611Z,37.00
2017-11-08T12:54:17.051Z,36.00
2017-11-08T12:56:44.600Z,35.75
2017-11-08T12:59:12.091Z,34.88
2017-11-08T13:01:39.527Z,37.35
2017-11-08T13:04:06.980Z,36.85
2017-11-08T13:06:37.262Z,36.13
2017-11-08T13:09:05.485Z,33.90
2017-11-08T13:11:35.780Z,37.70
2017-11-08T13:14:03.199Z,38.90
2017-11-08T13:16:30.733Z,35.90
2017-11-08T13:18:58.181Z,35.20
2017-11-08T13:21:25.721Z,37.08
2017-11-08T13:23:53.221Z,35.47
2017-11-08T13:26:20.693Z,35.87
2017-11-08T13:28:48.892Z,33.78
2017-11-08T13:31:16.387Z,30.45
2017-11-08T13:33:43.859Z,33.00
2017-11-08T13:36:11.417Z,31.37
2017-11-08T13:38:38.964Z,31.50
2017-11-08T13:41:06.413Z,34.63
2017-11-08T13:43:33.872Z,27.92
2017-11-08T13:46:01.304Z,30.58
2017-11-08T13:48:28.785Z,28.45
2017-11-08T13:50:56.232Z,29.55
2017-11-08T13:53:23.704Z,28.07
2017-11-08T13:55:53.928Z,28.12
2017-11-08T13:58:36.115Z,30.27
2017-11-08T14:01:03.560Z,29.80
2017-11-08T14:03:31.040Z,30.08
2017-11-08T14:05:58.472Z,29.25
2017-11-08T14:08:25.916Z,28.35
2017-11-08T14:10:53.363Z,28.20
2017-11-08T14:13:20.863Z,25.63
2017-11-08T14:15:48.401Z,28.87
2017-11-08T14:18:15.838Z,30.35
2017-11-08T14:20:43.332Z,29.80
2017-11-08T14:23:10.764Z,32.10
2017-11-08T14:25:38.224Z,33.25
2017-11-08T14:28:05.718Z,32.33
2017-11-08T14:30:34.052Z,33.10
2017-11-08T14:33:01.531Z,32.67
2017-11-08T14:35:28.988Z,33.10
2017-11-08T14:37:56.476Z,33.70
2017-11-08T14:40:23.909Z,31.17
2017-11-08T14:42:52.263Z,31.17
2017-11-08T14:45:19.717Z,32.88
2017-11-08T14:47:47.177Z,33.92
2017-11-08T14:50:14.629Z,32.65
2017-11-08T14:52:42.133Z,33.20
2017-11-08T14:55:11.417Z,32.75
2017-11-08T14:57:38.853Z,31.30
2017-11-08T15:00:06.357Z,31.12
2017-11-08T15:02:33.800Z,31.37
2017-11-08T15:05:01.236Z,33.53
2017-11-08T15:07:28.672Z,29.73
2017-11-08T15:09:56.349Z,31.15
2017-11-08T15:12:29.543Z,31.77
2017-11-08T15:15:10.340Z,33.22
2017-11-08T15:17:37.786Z,31.37
2017-11-08T15:20:20.173Z,34.63
2017-11-08T15:22:47.611Z,32.72
2017-11-08T15:25:15.060Z,35.13
2017-11-08T15:27:42.504Z,34.85
2017-11-08T15:32:59.636Z,33.03
2017-11-08T15:35:27.126Z,32.22
2017-11-08T15:37:54.568Z,36.58
2017-11-08T15:40:31.720Z,35.13
2017-11-08T15:42:59.933Z,34.20
2017-11-08T15:45:27.508Z,34.40
2017-11-08T15:47:54.978Z,34.67
2017-11-08T15:50:22.637Z,33.13
2017-11-08T15:52:50.087Z,33.75
2017-11-08T15:55:17.556Z,37.30
2017-11-08T15:57:45.137Z,36.50
2017-11-08T16:00:12.673Z,33.33
2017-11-08T16:02:40.194Z,34.88
2017-11-08T16:05:07.680Z,35.75
2017-11-08T16:07:35.122Z,36.85
2017-11-08T16:10:02.564Z,35.88
2017-11-08T16:12:30.028Z,36.80
2017-11-08T16:14:57.459Z,37.50
2017-11-08T16:17:26.905Z,34.65
2017-11-08T16:19:54.343Z,39.42
2017-11-08T16:22:21.791Z,35.35
2017-11-08T16:24:49.236Z,34.03
2017-11-08T16:27:16.732Z,35.95
2017-11-08T16:29:44.179Z,39.53
2017-11-08T16:32:13.543Z,37.28
2017-11-08T16:34:41.124Z,35.72
2017-11-08T16:37:08.700Z,35.75
2017-11-08T16:39:36.145Z,33.63
2017-11-08T16:42:03.627Z,36.67
2017-11-08T16:44:31.178Z,36.83
2017-11-08T16:46:58.732Z,35.43
2017-11-08T16:49:26.167Z,36.07
2017-11-08T16:51:53.662Z,34.70
2017-11-08T16:54:21.105Z,38.72
2017-11-08T16:56:48.556Z,36.58
2017-11-08T16:59:16.304Z,36.97
2017-11-08T17:01:43.757Z,33.15
2017-11-08T17:04:11.215Z,33.63
2017-11-08T17:06:38.681Z,32.13
2017-11-08T17:09:06.120Z,34.63
2017-11-08T17:11:33.573Z,33.83
2017-11-08T17:14:01.133Z,35.30
2017-11-08T17:16:28.604Z,31.40
2017-11-08T17:18:56.064Z,31.58
2017-11-08T17:21:23.516Z,32.70
2017-11-08T17:23:50.996Z,34.03
2017-11-08T17:26:18.431Z,36.50
2017-11-08T17:28:45.868Z,34.42
2017-11-08T17:31:13.315Z,36.03
2017-11-08T17:33:40.826Z,34.13
2017-11-08T17:36:08.315Z,36.78
2017-11-08T17:38:35.764Z,35.15
2017-11-08T17:41:03.297Z,32.40
2017-11-08T17:43:30.729Z,33.90
2017-11-08T17:45:58.204Z,37.33
2017-11-08T17:48:25.672Z,35.92
2017-11-08T17:50:53.112Z,38.70
2017-11-08T17:53:20.556Z,37.53
2017-11-08T17:55:48.028Z,36.38
2017-11-08T17:58:15.468Z,36.40
2017-11-08T18:00:42.907Z,37.38
2017-11-08T18:03:10.339Z,38.35
2017-11-08T18:05:39.167Z,38.63
2017-11-08T18:08:06.771Z,39.33
2017-11-08T18:10:34.479Z,38.67
2017-11-08T18:13:02.091Z,37.38
2017-11-08T18:15:29.531Z,39.63
2017-11-08T18:17:56.988Z,40.92
2017-11-08T18:20:24.433Z,42.30
2017-11-08T18:22:51.906Z,41.95
2017-11-08T18:25:19.352Z,43.47
2017-11-08T18:27:46.787Z,38.25
2017-11-08T18:30:14.257Z,40.00
2017-11-08T18:32:41.698Z,41.35
2017-11-08T18:35:09.290Z,40.28
2017-11-08T18:37:36.715Z,39.15
2017-11-08T18:40:04.201Z,38.20
2017-11-08T18:42:31.644Z,36.75
2017-11-08T18:44:59.099Z,41.20
2017-11-08T18:47:26.547Z,38.47
2017-11-08T18:49:53.999Z,39.25
2017-11-08T18:52:21.469Z,38.90
2017-11-08T18:54:49.025Z,40.30
2017-11-08T18:57:16.480Z,37.42
2017-11-08T18:59:43.935Z,37.05
2017-11-08T19:02:11.414Z,39.67
2017-11-08T19:04:38.856Z,38.97
2017-11-08T19:07:06.295Z,41.33
2017-11-08T19:09:33.764Z,39.53
2017-11-08T19:12:01.191Z,40.10
2017-11-08T19:14:28.632Z,40.92
2017-11-08T19:16:56.141Z,42.38
2017-11-08T19:19:23.604Z,41.67
2017-11-08T19:21:51.036Z,43.22
2017-11-08T19:24:18.471Z,44.53
2017-11-08T19:26:45.904Z,39.67
2017-11-08T19:29:14.112Z,40.78
2017-11-08T19:31:41.691Z,42.03
2017-11-08T19:34:09.131Z,43.42
2017-11-08T19:36:36.587Z,40.45
2017-11-08T19:39:04.076Z,44.87
2017-11-08T19:41:31.516Z,43.13
2017-11-08T19:43:58.976Z,45.35
2017-11-08T19:46:26.407Z,44.33
2017-11-08T19:48:53.910Z,42.40
2017-11-08T19:51:21.357Z,42.47
2017-11-08T19:53:48.801Z,43.97
2017-11-08T19:56:16.337Z,43.37
2017-11-08T19:58:43.811Z,40.53
2017-11-08T20:01:11.265Z,41.47
2017-11-08T20:03:38.828Z,44.88
2017-11-08T20:06:06.275Z,44.67
2017-11-08T20:08:33.743Z,44.75
2017-11-08T20:11:01.193Z,43.67
2017-11-08T20:13:28.638Z,42.22
2017-11-08T20:15:56.232Z,45.20
2017-11-08T20:18:23.668Z,45.30
2017-11-08T20:20:51.106Z,43.58
2017-11-08T20:23:18.606Z,44.15
2017-11-08T20:25:46.108Z,47.60
2017-11-08T20:28:13.601Z,43.03
2017-11-08T20:30:41.061Z,42.80
2017-11-08T20:33:08.508Z,48.15
2017-11-08T20:35:38.114Z,45.65
2017-11-08T20:38:05.648Z,45.75
2017-11-08T20:40:33.157Z,42.65
2017-11-08T20:43:00.616Z,45.43
2017-11-08T20:45:28.069Z,44.38
2017-11-08T20:47:55.523Z,45.33
2017-11-08T20:50:22.947Z,47.65
2017-11-08T20:52:50.388Z,46.97
2017-11-08T20:55:17.826Z,45.38
2017-11-08T20:57:46.023Z,49.90
2017-11-08T21:00:13.501Z,49.35
2017-11-08T21:02:40.974Z,47.45
2017-11-08T21:05:08.416Z,46.75
2017-11-08T21:07:35.996Z,48.22
2017-11-08T21:10:03.459Z,52.83
2017-11-08T21:12:31.017Z,50.28
2017-11-08T21:14:58.476Z,47.38
2017-11-08T21:17:25.936Z,46.55
2017-11-08T21:19:53.481Z,48.67
2017-11-08T21:22:20.939Z,47.30
2017-11-08T21:24:48.391Z,45.17
2017-11-08T21:27:15.823Z,47.03
2017-11-08T21:29:43.268Z,47.03
2017-11-08T21:32:10.736Z,46.92
2017-11-08T21:34:38.222Z,46.17
2017-11-08T21:37:05.682Z,46.73
2017-11-08T21:39:33.139Z,46.35
2017-11-08T21:42:00.593Z,48.58
2017-11-08T21:44:28.051Z,47.40
2017-11-08T21:46:55.467Z,45.58
2017-11-08T21:49:22.924Z,47.42
2017-11-08T21:51:50.433Z,45.83
2017-11-08T21:54:17.891Z,46.58
2017-11-08T21:56:45.311Z,46.20
2017-11-08T21:59:12.812Z,47.08
2017-11-08T22:01:40.248Z,46.97
2017-11-08T22:04:07.716Z,45.90
2017-11-08T22:06:35.161Z,47.95
2017-11-08T22:09:02.613Z,50.58
2017-11-08T22:11:30.072Z,46.28
2017-11-08T22:13:57.508Z,49.87
2017-11-08T22:16:24.965Z,48.17
2017-11-08T22:18:52.443Z,49.53
2017-11-08T22:21:19.907Z,45.75
2017-11-08T22:23:47.352Z,46.30
2017-11-08T22:26:14.828Z,46.30
2017-11-08T22:28:42.287Z,48.55
2017-11-08T22:31:09.847Z,50.20
2017-11-08T22:33:37.301Z,49.00
2017-11-08T22:36:04.728Z,47.90
2017-11-08T22:38:32.199Z,45.60
2017-11-08T22:40:59.639Z,47.65
2017-11-08T22:43:27.075Z,46.72
2017-11-08T22:45:54.541Z,48.65
2017-11-08T22:48:21.976Z,47.50
2017-11-08T22:50:50.187Z,46.63
2017-11-08T22:53:17.620Z,49.60
2017-11-08T22:55:45.108Z,49.15
2017-11-08T22:58:12.551Z,48.97
2017-11-08T23:00:40.136Z,51.78
2017-11-08T23:03:07.580Z,47.33
2017-11-08T23:05:35.024Z,52.27
2017-11-08T23:08:02.469Z,50.58
2017-11-08T23:10:29.934Z,50.15
2017-11-08T23:12:57.360Z,47.80
2017-11-08T23:15:24.966Z,45.63
2017-11-08T23:17:52.517Z,48.72
2017-11-08T23:20:20.069Z,47.20
2017-11-08T23:22:47.548Z,47.95
2017-11-08T23:25:14.978Z,48.63
2017-11-08T23:27:42.412Z,48.97
2017-11-08T23:30:09.849Z,48.35
2017-11-08T23:32:37.275Z,48.60
2017-11-08T23:35:04.707Z,49.58
2017-11-08T23:37:32.179Z,50.40
2017-11-08T23:39:59.621Z,48.45
2017-11-08T23:42:27.068Z,52.50
2017-11-08T23:44:54.547Z,48.70
2017-11-08T23:47:21.976Z,47.95
2017-11-08T23:49:49.420Z,49.05
2017-11-08T23:52:16.850Z,50.25
2017-11-08T23:54:46.989Z,47.40
2017-11-08T23:57:19.262Z,50.43
2017-11-08T23:59:49.175Z,49.95
